Terminal Aerodrome Forecast
Issued by NWS

Home | Current Version | Previous Version | Text Only | Print | Product List | Glossary On
Versions: 1 2 3 4 5 6 7 8 9 10 11 12 13 14 15 16 17 18 19 20 21 22 23 24 25 26 27
000
FTUS43 KLSX 310000 AAA
TAFCPS
TAF AMD
KCPS 310058Z 3101/3124 16007KT P6SM VCTS BKN040CB OVC080
      TEMPO 3101/3102 4SM -TSRA
     FM310300 17005KT P6SM SCT050 BKN120
     FM310600 VRB04KT P6SM SCT120 BKN250
     FM311000 VRB04KT 3SM BR SCT015
     FM311400 21007KT P6SM SCT030=

USA.gov is the U.S. government's official web portal to all federal, state and local government web resources and services.